sensor_id;sensor_type;location;lat;lon;timestamp;P1;durP1;ratioP1;P2;durP2;ratioP2
18336;SDS011;9294;51.106;7.028;2024-01-30T00:01:40;4.70;;;4.40;;
18336;SDS011;9294;51.106;7.028;2024-01-30T00:04:07;4.20;;;3.95;;
18336;SDS011;9294;51.106;7.028;2024-01-30T00:06:34;4.65;;;4.35;;
18336;SDS011;9294;51.106;7.028;2024-01-30T00:09:01;4.80;;;4.50;;
18336;SDS011;9294;51.106;7.028;2024-01-30T00:11:29;4.68;;;4.38;;
18336;SDS011;9294;51.106;7.028;2024-01-30T00:13:56;4.00;;;3.80;;
18336;SDS011;9294;51.106;7.028;2024-01-30T00:16:24;4.47;;;4.18;;
18336;SDS011;9294;51.106;7.028;2024-01-30T00:18:51;4.38;;;4.18;;
18336;SDS011;9294;51.106;7.028;2024-01-30T00:21:18;4.53;;;4.22;;
18336;SDS011;9294;51.106;7.028;2024-01-30T00:23:45;4.80;;;4.47;;
18336;SDS011;9294;51.106;7.028;2024-01-30T00:26:12;4.32;;;4.03;;
18336;SDS011;9294;51.106;7.028;2024-01-30T00:28:41;4.72;;;4.32;;
18336;SDS011;9294;51.106;7.028;2024-01-30T00:31:09;4.20;;;4.00;;
18336;SDS011;9294;51.106;7.028;2024-01-30T00:33:37;4.40;;;4.10;;
18336;SDS011;9294;51.106;7.028;2024-01-30T00:36:04;4.68;;;4.38;;
18336;SDS011;9294;51.106;7.028;2024-01-30T00:38:32;4.70;;;4.40;;
18336;SDS011;9294;51.106;7.028;2024-01-30T00:40:59;4.30;;;4.10;;
18336;SDS011;9294;51.106;7.028;2024-01-30T00:43:26;4.47;;;4.18;;
18336;SDS011;9294;51.106;7.028;2024-01-30T00:45:55;4.43;;;4.13;;
18336;SDS011;9294;51.106;7.028;2024-01-30T00:48:23;4.68;;;4.38;;
18336;SDS011;9294;51.106;7.028;2024-01-30T00:50:50;4.43;;;4.18;;
18336;SDS011;9294;51.106;7.028;2024-01-30T00:53:17;4.30;;;4.00;;
18336;SDS011;9294;51.106;7.028;2024-01-30T00:55:44;4.25;;;3.95;;
18336;SDS011;9294;51.106;7.028;2024-01-30T00:58:12;4.55;;;4.25;;
18336;SDS011;9294;51.106;7.028;2024-01-30T01:00:39;4.75;;;4.45;;
18336;SDS011;9294;51.106;7.028;2024-01-30T01:03:08;4.68;;;4.32;;
18336;SDS011;9294;51.106;7.028;2024-01-30T01:05:35;5.00;;;4.70;;
18336;SDS011;9294;51.106;7.028;2024-01-30T01:08:02;4.88;;;4.57;;
18336;SDS011;9294;51.106;7.028;2024-01-30T01:10:29;4.30;;;3.97;;
18336;SDS011;9294;51.106;7.028;2024-01-30T01:12:56;4.70;;;4.40;;
18336;SDS011;9294;51.106;7.028;2024-01-30T01:15:23;4.35;;;4.15;;
18336;SDS011;9294;51.106;7.028;2024-01-30T01:17:51;4.72;;;4.43;;
18336;SDS011;9294;51.106;7.028;2024-01-30T01:20:19;4.72;;;4.43;;
18336;SDS011;9294;51.106;7.028;2024-01-30T01:22:46;4.75;;;4.47;;
18336;SDS011;9294;51.106;7.028;2024-01-30T01:25:13;4.43;;;4.22;;
18336;SDS011;9294;51.106;7.028;2024-01-30T01:27:40;4.18;;;3.97;;
18336;SDS011;9294;51.106;7.028;2024-01-30T01:30:09;4.43;;;4.10;;
18336;SDS011;9294;51.106;7.028;2024-01-30T01:32:36;4.55;;;4.20;;
18336;SDS011;9294;51.106;7.028;2024-01-30T01:35:09;4.95;;;4.65;;
18336;SDS011;9294;51.106;7.028;2024-01-30T01:37:38;4.70;;;4.40;;
18336;SDS011;9294;51.106;7.028;2024-01-30T01:40:05;4.88;;;4.57;;
18336;SDS011;9294;51.106;7.028;2024-01-30T01:42:33;4.60;;;4.30;;
18336;SDS011;9294;51.106;7.028;2024-01-30T01:45:00;4.38;;;4.07;;
18336;SDS011;9294;51.106;7.028;2024-01-30T01:47:27;4.40;;;4.10;;
18336;SDS011;9294;51.106;7.028;2024-01-30T01:49:54;4.57;;;4.22;;
18336;SDS011;9294;51.106;7.028;2024-01-30T01:52:22;4.63;;;4.32;;
18336;SDS011;9294;51.106;7.028;2024-01-30T01:54:50;4.65;;;4.30;;
18336;SDS011;9294;51.106;7.028;2024-01-30T01:57:17;4.50;;;4.20;;
18336;SDS011;9294;51.106;7.028;2024-01-30T01:59:44;4.75;;;4.47;;
18336;SDS011;9294;51.106;7.028;2024-01-30T02:02:11;4.72;;;4.47;;
18336;SDS011;9294;51.106;7.028;2024-01-30T02:04:40;4.80;;;4.53;;
18336;SDS011;9294;51.106;7.028;2024-01-30T02:07:08;4.43;;;4.22;;
18336;SDS011;9294;51.106;7.028;2024-01-30T02:09:35;4.22;;;4.03;;
18336;SDS011;9294;51.106;7.028;2024-01-30T02:12:03;4.47;;;4.25;;
18336;SDS011;9294;51.106;7.028;2024-01-30T02:14:30;4.40;;;4.20;;
18336;SDS011;9294;51.106;7.028;2024-01-30T02:16:57;4.82;;;4.50;;
18336;SDS011;9294;51.106;7.028;2024-01-30T02:19:25;4.55;;;4.22;;
18336;SDS011;9294;51.106;7.028;2024-01-30T02:21:53;4.30;;;4.10;;
18336;SDS011;9294;51.106;7.028;2024-01-30T02:24:20;4.68;;;4.30;;
18336;SDS011;9294;51.106;7.028;2024-01-30T02:26:47;4.53;;;4.28;;
18336;SDS011;9294;51.106;7.028;2024-01-30T02:29:15;4.65;;;4.35;;
18336;SDS011;9294;51.106;7.028;2024-01-30T02:31:42;4.90;;;4.60;;
18336;SDS011;9294;51.106;7.028;2024-01-30T02:34:10;4.95;;;4.65;;
18336;SDS011;9294;51.106;7.028;2024-01-30T02:36:38;4.60;;;4.30;;
18336;SDS011;9294;51.106;7.028;2024-01-30T02:39:06;4.15;;;3.90;;
18336;SDS011;9294;51.106;7.028;2024-01-30T02:41:33;4.72;;;4.45;;
18336;SDS011;9294;51.106;7.028;2024-01-30T02:44:00;4.55;;;4.25;;
18336;SDS011;9294;51.106;7.028;2024-01-30T02:46:27;4.88;;;4.57;;
18336;SDS011;9294;51.106;7.028;2024-01-30T02:48:54;5.72;;;4.80;;
18336;SDS011;9294;51.106;7.028;2024-01-30T02:51:22;4.25;;;4.05;;
18336;SDS011;9294;51.106;7.028;2024-01-30T02:53:49;4.82;;;4.53;;
18336;SDS011;9294;51.106;7.028;2024-01-30T02:56:17;4.15;;;3.95;;
18336;SDS011;9294;51.106;7.028;2024-01-30T02:58:44;4.50;;;4.30;;
18336;SDS011;9294;51.106;7.028;2024-01-30T03:01:11;4.20;;;4.00;;
18336;SDS011;9294;51.106;7.028;2024-01-30T03:03:38;4.57;;;4.22;;
18336;SDS011;9294;51.106;7.028;2024-01-30T03:06:06;4.13;;;3.92;;
18336;SDS011;9294;51.106;7.028;2024-01-30T03:08:33;4.05;;;3.85;;
18336;SDS011;9294;51.106;7.028;2024-01-30T03:11:01;5.15;;;4.75;;
18336;SDS011;9294;51.106;7.028;2024-01-30T03:13:29;4.47;;;4.18;;
18336;SDS011;9294;51.106;7.028;2024-01-30T03:15:56;4.82;;;4.53;;
18336;SDS011;9294;51.106;7.028;2024-01-30T03:18:23;4.93;;;4.55;;
18336;SDS011;9294;51.106;7.028;2024-01-30T03:20:50;4.95;;;4.65;;
18336;SDS011;9294;51.106;7.028;2024-01-30T03:23:17;4.78;;;4.47;;
18336;SDS011;9294;51.106;7.028;2024-01-30T03:25:44;4.70;;;4.30;;
18336;SDS011;9294;51.106;7.028;2024-01-30T03:28:11;4.50;;;4.20;;
18336;SDS011;9294;51.106;7.028;2024-01-30T03:30:40;4.30;;;4.10;;
18336;SDS011;9294;51.106;7.028;2024-01-30T03:33:07;4.22;;;3.92;;
18336;SDS011;9294;51.106;7.028;2024-01-30T03:35:34;4.93;;;4.43;;
18336;SDS011;9294;51.106;7.028;2024-01-30T03:38:01;4.68;;;4.35;;
18336;SDS011;9294;51.106;7.028;2024-01-30T03:40:28;4.03;;;3.83;;
18336;SDS011;9294;51.106;7.028;2024-01-30T03:42:55;4.32;;;4.13;;
18336;SDS011;9294;51.106;7.028;2024-01-30T03:45:22;3.95;;;3.75;;
18336;SDS011;9294;51.106;7.028;2024-01-30T03:47:51;4.32;;;4.13;;
18336;SDS011;9294;51.106;7.028;2024-01-30T03:50:18;4.40;;;4.10;;
18336;SDS011;9294;51.106;7.028;2024-01-30T03:52:45;4.38;;;4.18;;
18336;SDS011;9294;51.106;7.028;2024-01-30T03:55:12;4.28;;;4.05;;
18336;SDS011;9294;51.106;7.028;2024-01-30T03:57:39;4.65;;;4.35;;
18336;SDS011;9294;51.106;7.028;2024-01-30T04:00:07;4.28;;;3.97;;
18336;SDS011;9294;51.106;7.028;2024-01-30T04:02:34;5.25;;;4.88;;
18336;SDS011;9294;51.106;7.028;2024-01-30T04:05:03;5.05;;;4.70;;
18336;SDS011;9294;51.106;7.028;2024-01-30T04:07:30;4.82;;;4.47;;
18336;SDS011;9294;51.106;7.028;2024-01-30T04:09:57;4.70;;;4.40;;
18336;SDS011;9294;51.106;7.028;2024-01-30T04:12:24;4.43;;;4.13;;
18336;SDS011;9294;51.106;7.028;2024-01-30T04:14:51;4.43;;;4.13;;
18336;SDS011;9294;51.106;7.028;2024-01-30T04:17:18;4.45;;;4.18;;
18336;SDS011;9294;51.106;7.028;2024-01-30T04:19:45;4.82;;;4.53;;
18336;SDS011;9294;51.106;7.028;2024-01-30T04:22:14;5.63;;;5.22;;
18336;SDS011;9294;51.106;7.028;2024-01-30T04:24:41;4.55;;;4.32;;
18336;SDS011;9294;51.106;7.028;2024-01-30T04:27:08;5.18;;;4.78;;
18336;SDS011;9294;51.106;7.028;2024-01-30T04:29:35;4.68;;;4.38;;
18336;SDS011;9294;51.106;7.028;2024-01-30T04:32:02;4.38;;;4.00;;
18336;SDS011;9294;51.106;7.028;2024-01-30T04:34:29;4.30;;;4.10;;
18336;SDS011;9294;51.106;7.028;2024-01-30T04:36:56;4.40;;;4.20;;
18336;SDS011;9294;51.106;7.028;2024-01-30T04:39:25;4.47;;;4.28;;
18336;SDS011;9294;51.106;7.028;2024-01-30T04:41:52;4.88;;;4.53;;
18336;SDS011;9294;51.106;7.028;2024-01-30T04:44:19;4.18;;;3.97;;
18336;SDS011;9294;51.106;7.028;2024-01-30T04:46:46;4.32;;;4.13;;
18336;SDS011;9294;51.106;7.028;2024-01-30T04:49:13;4.25;;;3.97;;
18336;SDS011;9294;51.106;7.028;2024-01-30T04:51:40;4.30;;;4.10;;
18336;SDS011;9294;51.106;7.028;2024-01-30T04:54:07;4.22;;;3.95;;
18336;SDS011;9294;51.106;7.028;2024-01-30T04:56:36;3.90;;;3.70;;
18336;SDS011;9294;51.106;7.028;2024-01-30T04:59:04;4.25;;;3.95;;
18336;SDS011;9294;51.106;7.028;2024-01-30T05:01:33;4.20;;;3.97;;
18336;SDS011;9294;51.106;7.028;2024-01-30T05:04:00;4.18;;;3.97;;
18336;SDS011;9294;51.106;7.028;2024-01-30T05:06:28;4.15;;;3.95;;
18336;SDS011;9294;51.106;7.028;2024-01-30T05:08:55;4.13;;;3.83;;
18336;SDS011;9294;51.106;7.028;2024-01-30T05:11:22;4.28;;;4.07;;
18336;SDS011;9294;51.106;7.028;2024-01-30T05:13:51;3.85;;;3.65;;
18336;SDS011;9294;51.106;7.028;2024-01-30T05:16:18;4.45;;;4.15;;
18336;SDS011;9294;51.106;7.028;2024-01-30T05:18:45;3.80;;;3.60;;
18336;SDS011;9294;51.106;7.028;2024-01-30T05:21:12;4.28;;;4.03;;
18336;SDS011;9294;51.106;7.028;2024-01-30T05:23:40;3.70;;;3.58;;
18336;SDS011;9294;51.106;7.028;2024-01-30T05:26:07;3.50;;;3.30;;
18336;SDS011;9294;51.106;7.028;2024-01-30T05:28:34;4.03;;;3.80;;
18336;SDS011;9294;51.106;7.028;2024-01-30T05:31:02;4.10;;;3.90;;
18336;SDS011;9294;51.106;7.028;2024-01-30T05:33:30;3.78;;;3.58;;
18336;SDS011;9294;51.106;7.028;2024-01-30T05:35:57;4.13;;;3.83;;
18336;SDS011;9294;51.106;7.028;2024-01-30T05:38:24;4.18;;;3.92;;
18336;SDS011;9294;51.106;7.028;2024-01-30T05:40:51;3.95;;;3.75;;
18336;SDS011;9294;51.106;7.028;2024-01-30T05:43:18;4.15;;;3.85;;
18336;SDS011;9294;51.106;7.028;2024-01-30T05:45:45;3.92;;;3.72;;
18336;SDS011;9294;51.106;7.028;2024-01-30T05:48:13;3.75;;;3.53;;
18336;SDS011;9294;51.106;7.028;2024-01-30T05:50:40;3.78;;;3.58;;
18336;SDS011;9294;51.106;7.028;2024-01-30T05:53:07;3.58;;;3.38;;
18336;SDS011;9294;51.106;7.028;2024-01-30T05:55:34;3.58;;;3.38;;
18336;SDS011;9294;51.106;7.028;2024-01-30T05:58:02;3.97;;;3.78;;
18336;SDS011;9294;51.106;7.028;2024-01-30T06:00:29;3.45;;;3.28;;
18336;SDS011;9294;51.106;7.028;2024-01-30T06:02:56;3.40;;;3.30;;
18336;SDS011;9294;51.106;7.028;2024-01-30T06:05:24;4.03;;;3.83;;
18336;SDS011;9294;51.106;7.028;2024-01-30T06:07:51;4.00;;;3.70;;
18336;SDS011;9294;51.106;7.028;2024-01-30T06:10:18;3.50;;;3.38;;
18336;SDS011;9294;51.106;7.028;2024-01-30T06:12:45;3.63;;;3.42;;
18336;SDS011;9294;51.106;7.028;2024-01-30T06:15:13;3.90;;;3.47;;
18336;SDS011;9294;51.106;7.028;2024-01-30T06:17:40;4.20;;;3.90;;
18336;SDS011;9294;51.106;7.028;2024-01-30T06:20:07;3.75;;;3.45;;
18336;SDS011;9294;51.106;7.028;2024-01-30T06:22:36;3.78;;;3.58;;
18336;SDS011;9294;51.106;7.028;2024-01-30T06:25:03;3.72;;;3.53;;
18336;SDS011;9294;51.106;7.028;2024-01-30T06:27:31;5.53;;;3.70;;
18336;SDS011;9294;51.106;7.028;2024-01-30T06:29:58;6.47;;;3.78;;
18336;SDS011;9294;51.106;7.028;2024-01-30T06:32:25;4.32;;;3.72;;
18336;SDS011;9294;51.106;7.028;2024-01-30T06:34:52;3.67;;;3.42;;
18336;SDS011;9294;51.106;7.028;2024-01-30T06:37:19;3.72;;;3.50;;
18336;SDS011;9294;51.106;7.028;2024-01-30T06:39:48;3.45;;;3.15;;
18336;SDS011;9294;51.106;7.028;2024-01-30T06:42:15;3.95;;;3.75;;
18336;SDS011;9294;51.106;7.028;2024-01-30T06:44:42;3.90;;;3.70;;
18336;SDS011;9294;51.106;7.028;2024-01-30T06:47:09;3.67;;;3.47;;
18336;SDS011;9294;51.106;7.028;2024-01-30T06:49:35;4.00;;;3.67;;
18336;SDS011;9294;51.106;7.028;2024-01-30T06:52:04;3.95;;;3.63;;
18336;SDS011;9294;51.106;7.028;2024-01-30T06:54:31;3.92;;;3.58;;
18336;SDS011;9294;51.106;7.028;2024-01-30T06:57:00;3.95;;;3.75;;
18336;SDS011;9294;51.106;7.028;2024-01-30T06:59:27;4.50;;;4.03;;
18336;SDS011;9294;51.106;7.028;2024-01-30T07:01:54;3.97;;;3.78;;
18336;SDS011;9294;51.106;7.028;2024-01-30T07:04:21;4.10;;;3.70;;
18336;SDS011;9294;51.106;7.028;2024-01-30T07:06:48;5.25;;;3.50;;
18336;SDS011;9294;51.106;7.028;2024-01-30T07:09:15;4.47;;;4.18;;
18336;SDS011;9294;51.106;7.028;2024-01-30T07:11:42;5.85;;;4.35;;
18336;SDS011;9294;51.106;7.028;2024-01-30T07:14:11;4.13;;;3.92;;
18336;SDS011;9294;51.106;7.028;2024-01-30T07:16:38;6.10;;;4.40;;
18336;SDS011;9294;51.106;7.028;2024-01-30T07:19:05;4.75;;;4.35;;
18336;SDS011;9294;51.106;7.028;2024-01-30T07:21:34;5.40;;;3.80;;
18336;SDS011;9294;51.106;7.028;2024-01-30T07:24:01;9.27;;;4.93;;
18336;SDS011;9294;51.106;7.028;2024-01-30T07:26:28;8.70;;;6.65;;
18336;SDS011;9294;51.106;7.028;2024-01-30T07:28:55;8.00;;;5.85;;
18336;SDS011;9294;51.106;7.028;2024-01-30T07:31:24;13.82;;;7.28;;
18336;SDS011;9294;51.106;7.028;2024-01-30T07:33:51;9.98;;;6.72;;
18336;SDS011;9294;51.106;7.028;2024-01-30T07:36:18;12.23;;;6.97;;
18336;SDS011;9294;51.106;7.028;2024-01-30T07:38:45;15.73;;;8.43;;
18336;SDS011;9294;51.106;7.028;2024-01-30T07:41:12;14.10;;;8.32;;
18336;SDS011;9294;51.106;7.028;2024-01-30T07:43:39;16.80;;;8.77;;
18336;SDS011;9294;51.106;7.028;2024-01-30T07:46:06;16.15;;;8.30;;
18336;SDS011;9294;51.106;7.028;2024-01-30T07:48:35;34.00;;;9.23;;
18336;SDS011;9294;51.106;7.028;2024-01-30T07:51:02;11.65;;;8.45;;
18336;SDS011;9294;51.106;7.028;2024-01-30T07:53:29;15.57;;;8.77;;
18336;SDS011;9294;51.106;7.028;2024-01-30T07:55:56;13.48;;;8.13;;
18336;SDS011;9294;51.106;7.028;2024-01-30T07:58:23;16.98;;;7.88;;
18336;SDS011;9294;51.106;7.028;2024-01-30T08:00:52;13.93;;;7.90;;
18336;SDS011;9294;51.106;7.028;2024-01-30T08:03:19;15.05;;;7.90;;
18336;SDS011;9294;51.106;7.028;2024-01-30T08:05:47;13.73;;;7.78;;
18336;SDS011;9294;51.106;7.028;2024-01-30T08:08:14;14.45;;;7.60;;
18336;SDS011;9294;51.106;7.028;2024-01-30T08:10:41;12.25;;;7.30;;
18336;SDS011;9294;51.106;7.028;2024-01-30T08:13:09;9.18;;;6.43;;
18336;SDS011;9294;51.106;7.028;2024-01-30T08:15:36;20.10;;;8.10;;
18336;SDS011;9294;51.106;7.028;2024-01-30T08:18:03;9.77;;;6.85;;
18336;SDS011;9294;51.106;7.028;2024-01-30T08:20:31;11.35;;;7.57;;
18336;SDS011;9294;51.106;7.028;2024-01-30T08:23:00;11.65;;;7.30;;
18336;SDS011;9294;51.106;7.028;2024-01-30T08:25:27;17.20;;;6.30;;
18336;SDS011;9294;51.106;7.028;2024-01-30T08:27:54;11.63;;;6.55;;
18336;SDS011;9294;51.106;7.028;2024-01-30T08:30:22;12.32;;;6.68;;
18336;SDS011;9294;51.106;7.028;2024-01-30T08:32:49;9.27;;;6.30;;
18336;SDS011;9294;51.106;7.028;2024-01-30T08:35:16;9.18;;;6.18;;
18336;SDS011;9294;51.106;7.028;2024-01-30T08:37:43;8.90;;;6.47;;
18336;SDS011;9294;51.106;7.028;2024-01-30T08:40:12;10.25;;;6.70;;
18336;SDS011;9294;51.106;7.028;2024-01-30T08:42:39;8.95;;;5.78;;
18336;SDS011;9294;51.106;7.028;2024-01-30T08:45:06;8.38;;;5.70;;
18336;SDS011;9294;51.106;7.028;2024-01-30T08:47:34;9.73;;;6.28;;
18336;SDS011;9294;51.106;7.028;2024-01-30T08:50:01;9.48;;;6.15;;
18336;SDS011;9294;51.106;7.028;2024-01-30T08:52:29;8.65;;;5.85;;
18336;SDS011;9294;51.106;7.028;2024-01-30T08:54:56;10.00;;;5.95;;
18336;SDS011;9294;51.106;7.028;2024-01-30T08:57:24;7.68;;;5.10;;
18336;SDS011;9294;51.106;7.028;2024-01-30T08:59:53;8.88;;;6.10;;
18336;SDS011;9294;51.106;7.028;2024-01-30T09:02:20;9.90;;;5.35;;
18336;SDS011;9294;51.106;7.028;2024-01-30T09:04:47;7.35;;;5.53;;
18336;SDS011;9294;51.106;7.028;2024-01-30T09:07:14;8.88;;;5.75;;
18336;SDS011;9294;51.106;7.028;2024-01-30T09:09:41;8.00;;;5.88;;
18336;SDS011;9294;51.106;7.028;2024-01-30T09:12:08;6.40;;;5.07;;
18336;SDS011;9294;51.106;7.028;2024-01-30T09:14:38;10.15;;;5.75;;
18336;SDS011;9294;51.106;7.028;2024-01-30T09:17:06;5.40;;;4.68;;
18336;SDS011;9294;51.106;7.028;2024-01-30T09:19:33;5.82;;;5.10;;
18336;SDS011;9294;51.106;7.028;2024-01-30T09:22:00;5.70;;;5.10;;
18336;SDS011;9294;51.106;7.028;2024-01-30T09:24:27;7.63;;;5.65;;
18336;SDS011;9294;51.106;7.028;2024-01-30T09:26:54;7.70;;;5.93;;
18336;SDS011;9294;51.106;7.028;2024-01-30T09:29:21;6.22;;;5.63;;
18336;SDS011;9294;51.106;7.028;2024-01-30T09:31:49;6.60;;;5.40;;
18336;SDS011;9294;51.106;7.028;2024-01-30T09:34:16;6.72;;;5.20;;
18336;SDS011;9294;51.106;7.028;2024-01-30T09:36:43;6.85;;;5.03;;
18336;SDS011;9294;51.106;7.028;2024-01-30T09:39:11;6.65;;;5.18;;
18336;SDS011;9294;51.106;7.028;2024-01-30T09:41:40;6.63;;;5.88;;
18336;SDS011;9294;51.106;7.028;2024-01-30T09:44:10;8.60;;;5.22;;
18336;SDS011;9294;51.106;7.028;2024-01-30T09:46:38;9.70;;;5.38;;
18336;SDS011;9294;51.106;7.028;2024-01-30T09:49:07;10.20;;;5.38;;
18336;SDS011;9294;51.106;7.028;2024-01-30T09:51:35;8.52;;;6.07;;
18336;SDS011;9294;51.106;7.028;2024-01-30T09:54:02;6.53;;;5.60;;
18336;SDS011;9294;51.106;7.028;2024-01-30T09:56:29;5.65;;;5.05;;
18336;SDS011;9294;51.106;7.028;2024-01-30T09:58:56;7.25;;;5.18;;
18336;SDS011;9294;51.106;7.028;2024-01-30T10:01:23;5.15;;;4.68;;
18336;SDS011;9294;51.106;7.028;2024-01-30T10:03:51;6.50;;;5.45;;
18336;SDS011;9294;51.106;7.028;2024-01-30T10:06:19;4.97;;;4.53;;
18336;SDS011;9294;51.106;7.028;2024-01-30T10:08:47;5.93;;;4.78;;
18336;SDS011;9294;51.106;7.028;2024-01-30T10:11:14;5.38;;;4.97;;
18336;SDS011;9294;51.106;7.028;2024-01-30T10:13:41;7.05;;;4.75;;
18336;SDS011;9294;51.106;7.028;2024-01-30T10:16:08;6.45;;;4.97;;
18336;SDS011;9294;51.106;7.028;2024-01-30T10:18:35;5.13;;;4.70;;
18336;SDS011;9294;51.106;7.028;2024-01-30T10:21:02;6.50;;;4.90;;
18336;SDS011;9294;51.106;7.028;2024-01-30T10:23:31;4.65;;;4.25;;
18336;SDS011;9294;51.106;7.028;2024-01-30T10:25:58;5.65;;;4.32;;
18336;SDS011;9294;51.106;7.028;2024-01-30T10:28:26;5.18;;;4.68;;
18336;SDS011;9294;51.106;7.028;2024-01-30T10:30:58;5.07;;;4.55;;
18336;SDS011;9294;51.106;7.028;2024-01-30T10:33:26;5.20;;;4.30;;
18336;SDS011;9294;51.106;7.028;2024-01-30T10:35:54;5.55;;;4.25;;
18336;SDS011;9294;51.106;7.028;2024-01-30T10:38:22;5.93;;;4.18;;
18336;SDS011;9294;51.106;7.028;2024-01-30T10:40:52;4.80;;;4.32;;
18336;SDS011;9294;51.106;7.028;2024-01-30T10:43:22;4.70;;;4.25;;
18336;SDS011;9294;51.106;7.028;2024-01-30T10:45:49;4.35;;;4.05;;
18336;SDS011;9294;51.106;7.028;2024-01-30T10:48:19;6.22;;;4.28;;
18336;SDS011;9294;51.106;7.028;2024-01-30T10:50:48;5.05;;;4.53;;
18336;SDS011;9294;51.106;7.028;2024-01-30T10:53:19;5.32;;;4.47;;
18336;SDS011;9294;51.106;7.028;2024-01-30T10:55:46;4.35;;;3.97;;
18336;SDS011;9294;51.106;7.028;2024-01-30T10:58:15;4.90;;;4.00;;
18336;SDS011;9294;51.106;7.028;2024-01-30T11:00:42;4.85;;;4.35;;
18336;SDS011;9294;51.106;7.028;2024-01-30T11:03:09;4.78;;;4.00;;
18336;SDS011;9294;51.106;7.028;2024-01-30T11:05:40;9.57;;;3.95;;
18336;SDS011;9294;51.106;7.028;2024-01-30T11:08:10;5.28;;;4.78;;
18336;SDS011;9294;51.106;7.028;2024-01-30T11:10:44;4.70;;;4.18;;
18336;SDS011;9294;51.106;7.028;2024-01-30T11:13:13;5.13;;;4.68;;
18336;SDS011;9294;51.106;7.028;2024-01-30T11:15:41;4.00;;;3.65;;
18336;SDS011;9294;51.106;7.028;2024-01-30T11:18:08;5.00;;;4.50;;
18336;SDS011;9294;51.106;7.028;2024-01-30T11:20:36;3.90;;;3.60;;
18336;SDS011;9294;51.106;7.028;2024-01-30T11:23:10;4.30;;;4.00;;
18336;SDS011;9294;51.106;7.028;2024-01-30T11:25:38;6.20;;;3.92;;
18336;SDS011;9294;51.106;7.028;2024-01-30T11:28:05;4.45;;;4.05;;
18336;SDS011;9294;51.106;7.028;2024-01-30T11:30:39;15.98;;;9.32;;
18336;SDS011;9294;51.106;7.028;2024-01-30T11:33:09;22.33;;;14.50;;
18336;SDS011;9294;51.106;7.028;2024-01-30T11:35:37;34.40;;;25.20;;
18336;SDS011;9294;51.106;7.028;2024-01-30T11:38:05;36.60;;;25.63;;
18336;SDS011;9294;51.106;7.028;2024-01-30T11:40:32;29.30;;;21.75;;
18336;SDS011;9294;51.106;7.028;2024-01-30T11:43:00;30.08;;;22.27;;
18336;SDS011;9294;51.106;7.028;2024-01-30T11:45:28;29.42;;;21.27;;
18336;SDS011;9294;51.106;7.028;2024-01-30T11:47:56;29.83;;;20.45;;
18336;SDS011;9294;51.106;7.028;2024-01-30T11:50:26;28.90;;;20.52;;
18336;SDS011;9294;51.106;7.028;2024-01-30T11:52:53;22.75;;;18.27;;
18336;SDS011;9294;51.106;7.028;2024-01-30T11:55:21;26.70;;;18.20;;
18336;SDS011;9294;51.106;7.028;2024-01-30T11:57:48;25.27;;;18.23;;
18336;SDS011;9294;51.106;7.028;2024-01-30T12:00:15;21.70;;;16.05;;
18336;SDS011;9294;51.106;7.028;2024-01-30T12:02:43;23.55;;;16.15;;
18336;SDS011;9294;51.106;7.028;2024-01-30T12:05:10;22.10;;;14.75;;
18336;SDS011;9294;51.106;7.028;2024-01-30T12:07:39;18.90;;;15.00;;
18336;SDS011;9294;51.106;7.028;2024-01-30T12:10:06;20.83;;;14.38;;
18336;SDS011;9294;51.106;7.028;2024-01-30T12:12:36;18.67;;;14.25;;
18336;SDS011;9294;51.106;7.028;2024-01-30T12:15:03;15.27;;;12.23;;
18336;SDS011;9294;51.106;7.028;2024-01-30T12:17:31;16.48;;;12.23;;
18336;SDS011;9294;51.106;7.028;2024-01-30T12:20:03;15.98;;;12.27;;
18336;SDS011;9294;51.106;7.028;2024-01-30T12:22:31;15.23;;;12.15;;
18336;SDS011;9294;51.106;7.028;2024-01-30T12:25:00;15.60;;;11.50;;
18336;SDS011;9294;51.106;7.028;2024-01-30T12:27:27;13.43;;;10.52;;
18336;SDS011;9294;51.106;7.028;2024-01-30T12:29:57;10.93;;;9.68;;
18336;SDS011;9294;51.106;7.028;2024-01-30T12:32:24;12.98;;;10.32;;
18336;SDS011;9294;51.106;7.028;2024-01-30T12:34:54;12.15;;;9.25;;
18336;SDS011;9294;51.106;7.028;2024-01-30T12:37:21;11.15;;;9.50;;
18336;SDS011;9294;51.106;7.028;2024-01-30T12:39:49;12.27;;;8.20;;
18336;SDS011;9294;51.106;7.028;2024-01-30T12:42:18;9.80;;;8.23;;
18336;SDS011;9294;51.106;7.028;2024-01-30T12:44:46;10.80;;;8.63;;
18336;SDS011;9294;51.106;7.028;2024-01-30T12:47:13;12.98;;;7.72;;
18336;SDS011;9294;51.106;7.028;2024-01-30T12:49:41;11.77;;;8.15;;
18336;SDS011;9294;51.106;7.028;2024-01-30T12:52:09;10.15;;;8.02;;
18336;SDS011;9294;51.106;7.028;2024-01-30T12:54:36;8.68;;;7.68;;
18336;SDS011;9294;51.106;7.028;2024-01-30T12:57:03;9.90;;;6.90;;
18336;SDS011;9294;51.106;7.028;2024-01-30T12:59:31;9.38;;;7.55;;
18336;SDS011;9294;51.106;7.028;2024-01-30T13:01:59;9.93;;;7.20;;
18336;SDS011;9294;51.106;7.028;2024-01-30T13:04:27;9.95;;;6.95;;
18336;SDS011;9294;51.106;7.028;2024-01-30T13:06:54;7.95;;;6.80;;
18336;SDS011;9294;51.106;7.028;2024-01-30T13:09:22;11.05;;;7.25;;
18336;SDS011;9294;51.106;7.028;2024-01-30T13:11:49;7.03;;;5.90;;
18336;SDS011;9294;51.106;7.028;2024-01-30T13:14:16;8.27;;;7.00;;
18336;SDS011;9294;51.106;7.028;2024-01-30T13:16:45;11.30;;;6.78;;
18336;SDS011;9294;51.106;7.028;2024-01-30T13:19:12;9.95;;;6.50;;
18336;SDS011;9294;51.106;7.028;2024-01-30T13:21:39;11.52;;;6.32;;
18336;SDS011;9294;51.106;7.028;2024-01-30T13:24:06;8.88;;;6.22;;
18336;SDS011;9294;51.106;7.028;2024-01-30T13:26:33;7.38;;;5.60;;
18336;SDS011;9294;51.106;7.028;2024-01-30T13:29:00;7.88;;;6.93;;
18336;SDS011;9294;51.106;7.028;2024-01-30T13:31:28;6.35;;;5.60;;
18336;SDS011;9294;51.106;7.028;2024-01-30T13:33:56;8.80;;;6.57;;
18336;SDS011;9294;51.106;7.028;2024-01-30T13:36:23;7.07;;;6.38;;
18336;SDS011;9294;51.106;7.028;2024-01-30T13:38:51;7.07;;;5.55;;
18336;SDS011;9294;51.106;7.028;2024-01-30T13:41:18;8.18;;;6.00;;
18336;SDS011;9294;51.106;7.028;2024-01-30T13:43:46;7.07;;;5.95;;
18336;SDS011;9294;51.106;7.028;2024-01-30T13:46:14;6.07;;;5.47;;
18336;SDS011;9294;51.106;7.028;2024-01-30T13:48:41;6.20;;;5.68;;
18336;SDS011;9294;51.106;7.028;2024-01-30T13:51:09;5.57;;;5.07;;
18336;SDS011;9294;51.106;7.028;2024-01-30T13:53:38;10.18;;;5.07;;
18336;SDS011;9294;51.106;7.028;2024-01-30T13:56:05;8.93;;;5.93;;
18336;SDS011;9294;51.106;7.028;2024-01-30T13:58:32;11.85;;;5.93;;
18336;SDS011;9294;51.106;7.028;2024-01-30T14:01:01;8.00;;;5.85;;
18336;SDS011;9294;51.106;7.028;2024-01-30T14:03:28;10.43;;;5.72;;
18336;SDS011;9294;51.106;7.028;2024-01-30T14:05:55;7.25;;;5.05;;
18336;SDS011;9294;51.106;7.028;2024-01-30T14:08:23;7.15;;;5.00;;
18336;SDS011;9294;51.106;7.028;2024-01-30T14:10:53;10.30;;;5.60;;
18336;SDS011;9294;51.106;7.028;2024-01-30T14:13:20;8.13;;;5.43;;
18336;SDS011;9294;51.106;7.028;2024-01-30T14:15:47;7.88;;;4.78;;
18336;SDS011;9294;51.106;7.028;2024-01-30T14:18:15;6.45;;;4.80;;
18336;SDS011;9294;51.106;7.028;2024-01-30T14:20:42;5.05;;;4.50;;
18336;SDS011;9294;51.106;7.028;2024-01-30T14:23:09;7.63;;;5.05;;
18336;SDS011;9294;51.106;7.028;2024-01-30T14:25:37;5.07;;;4.57;;
18336;SDS011;9294;51.106;7.028;2024-01-30T14:28:05;6.07;;;4.90;;
18336;SDS011;9294;51.106;7.028;2024-01-30T14:30:32;5.25;;;4.68;;
18336;SDS011;9294;51.106;7.028;2024-01-30T14:32:59;6.88;;;4.03;;
18336;SDS011;9294;51.106;7.028;2024-01-30T14:35:27;6.82;;;5.15;;
18336;SDS011;9294;51.106;7.028;2024-01-30T14:37:54;7.28;;;4.53;;
18336;SDS011;9294;51.106;7.028;2024-01-30T14:40:21;10.05;;;5.07;;
18336;SDS011;9294;51.106;7.028;2024-01-30T14:42:50;7.38;;;4.80;;
18336;SDS011;9294;51.106;7.028;2024-01-30T14:45:17;4.00;;;3.70;;
18336;SDS011;9294;51.106;7.028;2024-01-30T14:47:44;5.10;;;4.60;;
18336;SDS011;9294;51.106;7.028;2024-01-30T14:50:12;6.78;;;5.07;;
18336;SDS011;9294;51.106;7.028;2024-01-30T14:52:41;6.25;;;4.65;;
18336;SDS011;9294;51.106;7.028;2024-01-30T14:55:09;8.63;;;4.40;;
18336;SDS011;9294;51.106;7.028;2024-01-30T14:57:36;8.23;;;4.93;;
18336;SDS011;9294;51.106;7.028;2024-01-30T15:00:06;4.57;;;4.18;;